Lower Ranchito, New Mexico
Current Conditions -  °F | °C
As of 9:35 AM on Friday 21 Nov 2014 (Local Time) from KSKX Reporting Station
Clear Clear  
Wind Chill:   Ceiling: Unl
Heat Index:   Visibility: 10mi
Dew Point: -7°   Wind: 0mph
Humidity: 56%   Direction: NA
Pressure: 30.13"   Gusts: NA
Location:  36.6959°N, 106.135°W
Report Text: KSKX 211635Z AUTO 00000KT 10SM CLR 01/M07 A3013 RMK AO1
Loading
Personal Weather Stations






























Interactive Weather Map New forecast layout! Learn more

10-Day Weather Forecast

Advertisements
Track Severe Weather on mobile